sensor_id;sensor_type;location;lat;lon;timestamp;temperature;humidity
58809;DHT22;44579;51.672;7.834;2023-01-30T00:01:23;3.60;89.50
58809;DHT22;44579;51.672;7.834;2023-01-30T00:03:50;3.60;89.40
58809;DHT22;44579;51.672;7.834;2023-01-30T00:06:17;3.60;89.50
58809;DHT22;44579;51.672;7.834;2023-01-30T00:08:44;3.60;89.50
58809;DHT22;44579;51.672;7.834;2023-01-30T00:11:12;3.60;89.40
58809;DHT22;44579;51.672;7.834;2023-01-30T00:13:39;3.60;89.40
58809;DHT22;44579;51.672;7.834;2023-01-30T00:16:07;3.70;89.60
58809;DHT22;44579;51.672;7.834;2023-01-30T00:18:35;3.60;89.50
58809;DHT22;44579;51.672;7.834;2023-01-30T00:21:04;3.70;89.50
58809;DHT22;44579;51.672;7.834;2023-01-30T00:23:31;3.70;89.50
58809;DHT22;44579;51.672;7.834;2023-01-30T00:25:58;3.70;89.50
58809;DHT22;44579;51.672;7.834;2023-01-30T00:28:26;3.70;89.50
58809;DHT22;44579;51.672;7.834;2023-01-30T00:30:53;3.70;89.50
58809;DHT22;44579;51.672;7.834;2023-01-30T00:33:23;3.80;89.60
58809;DHT22;44579;51.672;7.834;2023-01-30T00:35:51;3.80;89.60
58809;DHT22;44579;51.672;7.834;2023-01-30T00:38:18;3.80;89.60
58809;DHT22;44579;51.672;7.834;2023-01-30T00:40:46;3.80;89.60
58809;DHT22;44579;51.672;7.834;2023-01-30T00:43:14;3.80;89.60
58809;DHT22;44579;51.672;7.834;2023-01-30T00:45:59;3.90;89.60
58809;DHT22;44579;51.672;7.834;2023-01-30T00:48:46;3.80;89.60
58809;DHT22;44579;51.672;7.834;2023-01-30T00:51:13;3.90;89.60
58809;DHT22;44579;51.672;7.834;2023-01-30T00:53:40;3.80;89.60
58809;DHT22;44579;51.672;7.834;2023-01-30T00:56:07;3.90;89.60
58809;DHT22;44579;51.672;7.834;2023-01-30T00:58:34;3.90;89.60
58809;DHT22;44579;51.672;7.834;2023-01-30T01:01:01;3.90;89.60
58809;DHT22;44579;51.672;7.834;2023-01-30T01:03:29;3.90;89.70
58809;DHT22;44579;51.672;7.834;2023-01-30T01:05:56;4.00;89.70
58809;DHT22;44579;51.672;7.834;2023-01-30T01:08:24;4.00;89.70
58809;DHT22;44579;51.672;7.834;2023-01-30T01:10:51;4.00;89.70
58809;DHT22;44579;51.672;7.834;2023-01-30T01:13:18;4.00;90.30
58809;DHT22;44579;51.672;7.834;2023-01-30T01:15:45;4.00;89.70
58809;DHT22;44579;51.672;7.834;2023-01-30T01:18:13;4.10;89.80
58809;DHT22;44579;51.672;7.834;2023-01-30T01:20:40;4.10;89.80
58809;DHT22;44579;51.672;7.834;2023-01-30T01:23:08;4.10;89.80
58809;DHT22;44579;51.672;7.834;2023-01-30T01:25:35;4.20;89.90
58809;DHT22;44579;51.672;7.834;2023-01-30T01:28:12;4.20;89.90
58809;DHT22;44579;51.672;7.834;2023-01-30T01:34:14;4.20;90.00
58809;DHT22;44579;51.672;7.834;2023-01-30T01:37:08;4.30;90.00
58809;DHT22;44579;51.672;7.834;2023-01-30T01:40:11;4.20;89.90
58809;DHT22;44579;51.672;7.834;2023-01-30T01:43:18;4.30;90.00
58809;DHT22;44579;51.672;7.834;2023-01-30T01:45:46;4.30;90.00
58809;DHT22;44579;51.672;7.834;2023-01-30T01:48:25;4.30;90.00
58809;DHT22;44579;51.672;7.834;2023-01-30T01:50:55;4.30;90.00
58809;DHT22;44579;51.672;7.834;2023-01-30T01:53:41;4.30;90.00
58809;DHT22;44579;51.672;7.834;2023-01-30T01:56:09;4.30;90.00
58809;DHT22;44579;51.672;7.834;2023-01-30T01:58:46;4.30;90.00
58809;DHT22;44579;51.672;7.834;2023-01-30T02:01:17;4.30;90.00
58809;DHT22;44579;51.672;7.834;2023-01-30T02:04:05;4.30;90.00
58809;DHT22;44579;51.672;7.834;2023-01-30T02:06:44;4.30;90.00
58809;DHT22;44579;51.672;7.834;2023-01-30T02:09:13;4.30;90.00
58809;DHT22;44579;51.672;7.834;2023-01-30T02:11:45;4.30;90.10
58809;DHT22;44579;51.672;7.834;2023-01-30T02:14:13;4.40;90.10
58809;DHT22;44579;51.672;7.834;2023-01-30T02:16:42;4.30;90.10
58809;DHT22;44579;51.672;7.834;2023-01-30T02:19:18;4.30;90.10
58809;DHT22;44579;51.672;7.834;2023-01-30T02:21:58;4.40;90.10
58809;DHT22;44579;51.672;7.834;2023-01-30T02:25:53;4.30;90.10
58809;DHT22;44579;51.672;7.834;2023-01-30T02:33:34;4.40;90.20
58809;DHT22;44579;51.672;7.834;2023-01-30T02:38:37;4.40;90.20
58809;DHT22;44579;51.672;7.834;2023-01-30T02:43:57;4.40;90.30
58809;DHT22;44579;51.672;7.834;2023-01-30T02:46:36;4.40;90.30
58809;DHT22;44579;51.672;7.834;2023-01-30T02:56:59;4.50;90.40
58809;DHT22;44579;51.672;7.834;2023-01-30T03:00:04;4.50;90.40
58809;DHT22;44579;51.672;7.834;2023-01-30T03:11:06;4.50;90.40
58809;DHT22;44579;51.672;7.834;2023-01-30T03:17:32;4.50;90.40
58809;DHT22;44579;51.672;7.834;2023-01-30T03:20:04;4.60;90.50
58809;DHT22;44579;51.672;7.834;2023-01-30T03:22:31;4.60;90.50
58809;DHT22;44579;51.672;7.834;2023-01-30T03:24:58;4.60;90.50
58809;DHT22;44579;51.672;7.834;2023-01-30T03:27:25;4.60;90.50
58809;DHT22;44579;51.672;7.834;2023-01-30T03:29:52;4.60;90.50
58809;DHT22;44579;51.672;7.834;2023-01-30T03:32:20;4.60;90.50
58809;DHT22;44579;51.672;7.834;2023-01-30T03:34:46;4.70;90.60
58809;DHT22;44579;51.672;7.834;2023-01-30T03:42:48;4.70;90.60
58809;DHT22;44579;51.672;7.834;2023-01-30T03:45:16;4.70;90.60
58809;DHT22;44579;51.672;7.834;2023-01-30T03:47:46;4.80;90.60
58809;DHT22;44579;51.672;7.834;2023-01-30T03:50:14;4.70;90.60
58809;DHT22;44579;51.672;7.834;2023-01-30T03:52:45;4.80;90.60
58809;DHT22;44579;51.672;7.834;2023-01-30T03:55:16;4.80;90.70
58809;DHT22;44579;51.672;7.834;2023-01-30T03:57:44;4.80;90.70
58809;DHT22;44579;51.672;7.834;2023-01-30T04:00:14;4.80;90.70
58809;DHT22;44579;51.672;7.834;2023-01-30T04:02:47;4.80;90.70
58809;DHT22;44579;51.672;7.834;2023-01-30T04:05:16;4.80;90.70
58809;DHT22;44579;51.672;7.834;2023-01-30T04:07:49;4.90;90.70
58809;DHT22;44579;51.672;7.834;2023-01-30T04:10:17;4.90;90.70
58809;DHT22;44579;51.672;7.834;2023-01-30T04:12:45;4.80;90.70
58809;DHT22;44579;51.672;7.834;2023-01-30T04:15:12;4.90;90.80
58809;DHT22;44579;51.672;7.834;2023-01-30T04:17:50;4.90;90.80
58809;DHT22;44579;51.672;7.834;2023-01-30T04:20:37;4.90;90.80
58809;DHT22;44579;51.672;7.834;2023-01-30T04:23:05;4.90;90.80
58809;DHT22;44579;51.672;7.834;2023-01-30T04:25:32;4.90;90.80
58809;DHT22;44579;51.672;7.834;2023-01-30T04:27:59;4.90;90.80
58809;DHT22;44579;51.672;7.834;2023-01-30T04:30:33;5.00;90.80
58809;DHT22;44579;51.672;7.834;2023-01-30T04:33:23;5.00;90.80
58809;DHT22;44579;51.672;7.834;2023-01-30T04:35:52;5.00;90.80
58809;DHT22;44579;51.672;7.834;2023-01-30T04:38:20;5.00;90.80
58809;DHT22;44579;51.672;7.834;2023-01-30T04:40:55;5.00;90.80
58809;DHT22;44579;51.672;7.834;2023-01-30T04:43:28;5.00;90.80
58809;DHT22;44579;51.672;7.834;2023-01-30T04:46:15;5.00;90.80
58809;DHT22;44579;51.672;7.834;2023-01-30T04:48:44;5.00;90.80
58809;DHT22;44579;51.672;7.834;2023-01-30T04:51:12;5.00;90.90
58809;DHT22;44579;51.672;7.834;2023-01-30T04:53:39;5.00;90.80
58809;DHT22;44579;51.672;7.834;2023-01-30T04:56:07;5.00;90.90
58809;DHT22;44579;51.672;7.834;2023-01-30T04:58:35;5.00;90.90
58809;DHT22;44579;51.672;7.834;2023-01-30T05:03:49;5.10;90.90
58809;DHT22;44579;51.672;7.834;2023-01-30T05:06:16;5.10;90.90
58809;DHT22;44579;51.672;7.834;2023-01-30T05:08:42;5.10;90.90
58809;DHT22;44579;51.672;7.834;2023-01-30T05:11:12;5.10;90.90
58809;DHT22;44579;51.672;7.834;2023-01-30T05:13:39;5.10;91.00
58809;DHT22;44579;51.672;7.834;2023-01-30T05:16:06;5.10;90.90
58809;DHT22;44579;51.672;7.834;2023-01-30T05:18:33;5.10;90.90
58809;DHT22;44579;51.672;7.834;2023-01-30T05:21:19;5.10;90.90
58809;DHT22;44579;51.672;7.834;2023-01-30T05:23:46;5.20;91.00
58809;DHT22;44579;51.672;7.834;2023-01-30T05:26:13;5.10;91.00
58809;DHT22;44579;51.672;7.834;2023-01-30T05:28:40;5.20;91.00
58809;DHT22;44579;51.672;7.834;2023-01-30T05:31:08;5.20;91.00
58809;DHT22;44579;51.672;7.834;2023-01-30T05:33:36;5.20;91.00
58809;DHT22;44579;51.672;7.834;2023-01-30T05:36:03;5.20;91.00
58809;DHT22;44579;51.672;7.834;2023-01-30T05:38:30;5.20;91.00
58809;DHT22;44579;51.672;7.834;2023-01-30T05:40:58;5.20;91.00
58809;DHT22;44579;51.672;7.834;2023-01-30T05:43:26;5.20;91.10
58809;DHT22;44579;51.672;7.834;2023-01-30T05:45:53;5.20;91.10
58809;DHT22;44579;51.672;7.834;2023-01-30T05:48:21;5.20;91.10
58809;DHT22;44579;51.672;7.834;2023-01-30T05:50:49;5.30;91.10
58809;DHT22;44579;51.672;7.834;2023-01-30T05:53:18;5.30;91.10
58809;DHT22;44579;51.672;7.834;2023-01-30T05:55:45;5.30;91.00
58809;DHT22;44579;51.672;7.834;2023-01-30T05:58:12;5.40;91.10
58809;DHT22;44579;51.672;7.834;2023-01-30T06:00:39;5.40;91.10
58809;DHT22;44579;51.672;7.834;2023-01-30T06:03:06;5.40;91.20
58809;DHT22;44579;51.672;7.834;2023-01-30T06:05:36;5.40;91.20
58809;DHT22;44579;51.672;7.834;2023-01-30T06:08:02;5.40;91.20
58809;DHT22;44579;51.672;7.834;2023-01-30T06:10:29;5.40;91.10
58809;DHT22;44579;51.672;7.834;2023-01-30T06:12:56;5.40;91.20
58809;DHT22;44579;51.672;7.834;2023-01-30T06:15:23;5.50;91.20
58809;DHT22;44579;51.672;7.834;2023-01-30T06:17:49;5.40;91.20
58809;DHT22;44579;51.672;7.834;2023-01-30T06:20:16;5.50;91.20
58809;DHT22;44579;51.672;7.834;2023-01-30T06:22:44;5.50;91.20
58809;DHT22;44579;51.672;7.834;2023-01-30T06:25:10;5.50;91.20
58809;DHT22;44579;51.672;7.834;2023-01-30T06:27:37;5.60;91.30
58809;DHT22;44579;51.672;7.834;2023-01-30T06:30:04;5.60;91.30
58809;DHT22;44579;51.672;7.834;2023-01-30T06:32:31;5.60;91.30
58809;DHT22;44579;51.672;7.834;2023-01-30T06:34:58;5.70;91.30
58809;DHT22;44579;51.672;7.834;2023-01-30T06:37:27;5.70;91.30
58809;DHT22;44579;51.672;7.834;2023-01-30T06:39:54;5.70;91.30
58809;DHT22;44579;51.672;7.834;2023-01-30T06:42:21;5.70;91.30
58809;DHT22;44579;51.672;7.834;2023-01-30T06:44:48;5.70;91.20
58809;DHT22;44579;51.672;7.834;2023-01-30T06:47:14;5.80;91.30
58809;DHT22;44579;51.672;7.834;2023-01-30T06:49:41;5.80;91.30
58809;DHT22;44579;51.672;7.834;2023-01-30T06:52:08;5.90;91.40
58809;DHT22;44579;51.672;7.834;2023-01-30T06:54:35;5.80;91.30
58809;DHT22;44579;51.672;7.834;2023-01-30T06:57:02;5.90;91.30
58809;DHT22;44579;51.672;7.834;2023-01-30T06:59:30;5.90;91.30
58809;DHT22;44579;51.672;7.834;2023-01-30T07:01:56;5.90;91.30
58809;DHT22;44579;51.672;7.834;2023-01-30T07:04:23;5.80;91.30
58809;DHT22;44579;51.672;7.834;2023-01-30T07:06:50;5.90;91.40
58809;DHT22;44579;51.672;7.834;2023-01-30T07:09:17;5.90;91.40
58809;DHT22;44579;51.672;7.834;2023-01-30T07:11:45;6.00;91.40
58809;DHT22;44579;51.672;7.834;2023-01-30T07:14:14;6.00;91.40
58809;DHT22;44579;51.672;7.834;2023-01-30T07:16:41;6.10;91.40
58809;DHT22;44579;51.672;7.834;2023-01-30T07:19:07;6.10;91.40
58809;DHT22;44579;51.672;7.834;2023-01-30T07:21:34;6.10;91.40
58809;DHT22;44579;51.672;7.834;2023-01-30T07:24:01;6.20;91.50
58809;DHT22;44579;51.672;7.834;2023-01-30T07:26:28;6.20;91.50
58809;DHT22;44579;51.672;7.834;2023-01-30T07:28:56;6.20;91.50
58809;DHT22;44579;51.672;7.834;2023-01-30T07:31:23;6.20;91.50
58809;DHT22;44579;51.672;7.834;2023-01-30T07:33:50;6.30;91.50
58809;DHT22;44579;51.672;7.834;2023-01-30T07:36:17;6.20;91.40
58809;DHT22;44579;51.672;7.834;2023-01-30T07:38:52;6.30;91.50
58809;DHT22;44579;51.672;7.834;2023-01-30T07:41:19;6.30;91.60
58809;DHT22;44579;51.672;7.834;2023-01-30T07:43:47;6.30;91.90
58809;DHT22;44579;51.672;7.834;2023-01-30T07:46:14;6.20;91.80
58809;DHT22;44579;51.672;7.834;2023-01-30T07:48:42;6.10;91.80
58809;DHT22;44579;51.672;7.834;2023-01-30T07:51:12;6.10;92.00
58809;DHT22;44579;51.672;7.834;2023-01-30T07:57:26;6.10;92.10
58809;DHT22;44579;51.672;7.834;2023-01-30T08:00:56;6.10;92.10
58809;DHT22;44579;51.672;7.834;2023-01-30T08:03:22;6.10;92.10
58809;DHT22;44579;51.672;7.834;2023-01-30T08:05:49;6.10;92.00
58809;DHT22;44579;51.672;7.834;2023-01-30T08:08:16;6.10;92.00
58809;DHT22;44579;51.672;7.834;2023-01-30T08:10:43;6.10;91.90
58809;DHT22;44579;51.672;7.834;2023-01-30T08:13:12;6.10;91.90
58809;DHT22;44579;51.672;7.834;2023-01-30T08:15:39;6.10;91.80
58809;DHT22;44579;51.672;7.834;2023-01-30T08:18:06;6.10;91.80
58809;DHT22;44579;51.672;7.834;2023-01-30T08:20:33;6.10;91.90
58809;DHT22;44579;51.672;7.834;2023-01-30T08:23:00;6.10;91.90
58809;DHT22;44579;51.672;7.834;2023-01-30T08:25:34;6.10;91.90
58809;DHT22;44579;51.672;7.834;2023-01-30T08:28:02;6.10;91.80
58809;DHT22;44579;51.672;7.834;2023-01-30T08:30:29;6.10;92.00
58809;DHT22;44579;51.672;7.834;2023-01-30T08:32:56;6.10;92.10
58809;DHT22;44579;51.672;7.834;2023-01-30T08:35:23;6.10;92.20
58809;DHT22;44579;51.672;7.834;2023-01-30T08:37:50;6.10;92.10
58809;DHT22;44579;51.672;7.834;2023-01-30T08:40:16;6.10;92.10
58809;DHT22;44579;51.672;7.834;2023-01-30T08:42:44;6.20;92.10
58809;DHT22;44579;51.672;7.834;2023-01-30T08:45:11;6.20;92.00
58809;DHT22;44579;51.672;7.834;2023-01-30T08:47:38;6.20;92.00
58809;DHT22;44579;51.672;7.834;2023-01-30T08:50:05;6.30;92.00
58809;DHT22;44579;51.672;7.834;2023-01-30T08:52:32;6.30;92.00
58809;DHT22;44579;51.672;7.834;2023-01-30T08:54:59;6.40;91.90
58809;DHT22;44579;51.672;7.834;2023-01-30T08:57:25;6.40;91.80
58809;DHT22;44579;51.672;7.834;2023-01-30T08:59:52;6.40;91.80
58809;DHT22;44579;51.672;7.834;2023-01-30T09:02:19;6.40;91.70
58809;DHT22;44579;51.672;7.834;2023-01-30T09:04:45;6.40;91.70
58809;DHT22;44579;51.672;7.834;2023-01-30T09:07:12;6.40;91.70
58809;DHT22;44579;51.672;7.834;2023-01-30T09:09:39;6.50;91.70
58809;DHT22;44579;51.672;7.834;2023-01-30T09:12:05;6.40;91.70
58809;DHT22;44579;51.672;7.834;2023-01-30T09:14:32;6.50;91.80
58809;DHT22;44579;51.672;7.834;2023-01-30T09:16:59;6.50;91.80
58809;DHT22;44579;51.672;7.834;2023-01-30T09:19:27;6.50;91.80
58809;DHT22;44579;51.672;7.834;2023-01-30T09:21:53;6.50;91.80
58809;DHT22;44579;51.672;7.834;2023-01-30T09:24:21;6.60;91.80
58809;DHT22;44579;51.672;7.834;2023-01-30T09:26:52;6.70;91.80
58809;DHT22;44579;51.672;7.834;2023-01-30T09:29:19;6.60;91.80
58809;DHT22;44579;51.672;7.834;2023-01-30T09:31:46;6.70;91.80
58809;DHT22;44579;51.672;7.834;2023-01-30T09:34:12;6.70;91.70
58809;DHT22;44579;51.672;7.834;2023-01-30T09:36:39;6.80;91.80
58809;DHT22;44579;51.672;7.834;2023-01-30T09:39:07;6.80;91.80
58809;DHT22;44579;51.672;7.834;2023-01-30T09:44:13;6.80;91.80
58809;DHT22;44579;51.672;7.834;2023-01-30T09:46:54;6.80;91.80
58809;DHT22;44579;51.672;7.834;2023-01-30T09:52:17;6.80;91.80
58809;DHT22;44579;51.672;7.834;2023-01-30T09:54:47;6.80;91.70
58809;DHT22;44579;51.672;7.834;2023-01-30T09:57:15;6.80;91.70
58809;DHT22;44579;51.672;7.834;2023-01-30T09:59:49;6.80;91.70
58809;DHT22;44579;51.672;7.834;2023-01-30T10:04:44;6.80;91.70
58809;DHT22;44579;51.672;7.834;2023-01-30T10:10:21;6.90;91.70
58809;DHT22;44579;51.672;7.834;2023-01-30T10:12:57;6.90;91.70
58809;DHT22;44579;51.672;7.834;2023-01-30T10:20:51;6.90;91.70
58809;DHT22;44579;51.672;7.834;2023-01-30T10:26:09;7.00;91.70
58809;DHT22;44579;51.672;7.834;2023-01-30T10:28:38;7.10;91.70
58809;DHT22;44579;51.672;7.834;2023-01-30T10:31:09;7.20;91.70
58809;DHT22;44579;51.672;7.834;2023-01-30T10:34:23;7.20;91.70
58809;DHT22;44579;51.672;7.834;2023-01-30T10:36:43;7.20;91.70
58809;DHT22;44579;51.672;7.834;2023-01-30T10:39:26;7.20;91.70
58809;DHT22;44579;51.672;7.834;2023-01-30T10:41:55;7.20;91.80
58809;DHT22;44579;51.672;7.834;2023-01-30T10:44:24;7.20;91.80
58809;DHT22;44579;51.672;7.834;2023-01-30T10:49:34;7.20;91.80
58809;DHT22;44579;51.672;7.834;2023-01-30T10:52:17;7.20;91.90
58809;DHT22;44579;51.672;7.834;2023-01-30T10:57:23;7.20;91.90
58809;DHT22;44579;51.672;7.834;2023-01-30T11:02:29;7.20;91.90
58809;DHT22;44579;51.672;7.834;2023-01-30T11:04:58;7.20;91.90
58809;DHT22;44579;51.672;7.834;2023-01-30T11:07:30;7.20;91.90
58809;DHT22;44579;51.672;7.834;2023-01-30T11:09:57;7.20;91.90
58809;DHT22;44579;51.672;7.834;2023-01-30T11:12:24;7.20;91.90
58809;DHT22;44579;51.672;7.834;2023-01-30T11:14:58;7.20;91.90
58809;DHT22;44579;51.672;7.834;2023-01-30T11:17:35;7.20;91.90
58809;DHT22;44579;51.672;7.834;2023-01-30T11:20:24;7.20;91.90
58809;DHT22;44579;51.672;7.834;2023-01-30T11:22:51;7.30;91.90
58809;DHT22;44579;51.672;7.834;2023-01-30T11:25:25;7.30;92.00
58809;DHT22;44579;51.672;7.834;2023-01-30T11:28:00;7.30;92.10
58809;DHT22;44579;51.672;7.834;2023-01-30T11:30:28;7.30;92.20
58809;DHT22;44579;51.672;7.834;2023-01-30T11:33:15;7.30;92.20
58809;DHT22;44579;51.672;7.834;2023-01-30T11:39:31;7.40;92.20
58809;DHT22;44579;51.672;7.834;2023-01-30T11:41:32;7.40;92.20
58809;DHT22;44579;51.672;7.834;2023-01-30T11:44:03;7.30;92.00
58809;DHT22;44579;51.672;7.834;2023-01-30T11:46:32;7.30;92.00
58809;DHT22;44579;51.672;7.834;2023-01-30T11:49:02;7.30;92.00
58809;DHT22;44579;51.672;7.834;2023-01-30T11:51:51;7.30;92.00
58809;DHT22;44579;51.672;7.834;2023-01-30T11:54:21;7.30;91.90
58809;DHT22;44579;51.672;7.834;2023-01-30T11:56:52;7.40;91.90
58809;DHT22;44579;51.672;7.834;2023-01-30T12:01:47;7.40;91.60
58809;DHT22;44579;51.672;7.834;2023-01-30T12:04:14;7.40;91.70
58809;DHT22;44579;51.672;7.834;2023-01-30T12:06:41;7.40;91.60
58809;DHT22;44579;51.672;7.834;2023-01-30T12:09:30;7.50;91.60
58809;DHT22;44579;51.672;7.834;2023-01-30T12:11:57;7.60;91.80
58809;DHT22;44579;51.672;7.834;2023-01-30T12:16:59;7.70;91.90
58809;DHT22;44579;51.672;7.834;2023-01-30T12:19:33;7.80;92.00
58809;DHT22;44579;51.672;7.834;2023-01-30T12:32:27;7.80;92.10
58809;DHT22;44579;51.672;7.834;2023-01-30T12:34:56;7.90;92.50
58809;DHT22;44579;51.672;7.834;2023-01-30T12:37:39;7.90;92.10
58809;DHT22;44579;51.672;7.834;2023-01-30T12:45:05;8.00;92.10
58809;DHT22;44579;51.672;7.834;2023-01-30T12:47:46;8.10;92.10
58809;DHT22;44579;51.672;7.834;2023-01-30T12:55:44;8.10;92.00
58809;DHT22;44579;51.672;7.834;2023-01-30T13:03:28;8.10;91.50
58809;DHT22;44579;51.672;7.834;2023-01-30T13:06:05;8.00;91.30
58809;DHT22;44579;51.672;7.834;2023-01-30T13:08:40;8.00;91.20
58809;DHT22;44579;51.672;7.834;2023-01-30T13:14:06;7.90;91.10
58809;DHT22;44579;51.672;7.834;2023-01-30T13:23:17;7.70;91.10
58809;DHT22;44579;51.672;7.834;2023-01-30T13:25:47;7.70;91.10
58809;DHT22;44579;51.672;7.834;2023-01-30T13:28:14;7.70;90.80
58809;DHT22;44579;51.672;7.834;2023-01-30T13:30:41;7.70;90.80
58809;DHT22;44579;51.672;7.834;2023-01-30T13:33:11;7.80;90.80
58809;DHT22;44579;51.672;7.834;2023-01-30T13:35:49;7.80;90.70
58809;DHT22;44579;51.672;7.834;2023-01-30T13:38:19;7.90;90.60
58809;DHT22;44579;51.672;7.834;2023-01-30T13:40:46;7.90;90.20
58809;DHT22;44579;51.672;7.834;2023-01-30T13:45:45;8.00;90.00
58809;DHT22;44579;51.672;7.834;2023-01-30T13:56:07;8.10;87.70
58809;DHT22;44579;51.672;7.834;2023-01-30T13:59:00;8.20;87.60
58809;DHT22;44579;51.672;7.834;2023-01-30T14:07:08;8.20;87.70
58809;DHT22;44579;51.672;7.834;2023-01-30T14:09:35;8.20;85.30
58809;DHT22;44579;51.672;7.834;2023-01-30T14:12:02;8.20;85.30
58809;DHT22;44579;51.672;7.834;2023-01-30T14:14:30;8.30;84.60
58809;DHT22;44579;51.672;7.834;2023-01-30T14:17:09;8.30;83.90
58809;DHT22;44579;51.672;7.834;2023-01-30T14:27:34;8.30;84.30
58809;DHT22;44579;51.672;7.834;2023-01-30T14:30:01;8.10;84.50
58809;DHT22;44579;51.672;7.834;2023-01-30T14:35:15;7.40;87.90
58809;DHT22;44579;51.672;7.834;2023-01-30T14:37:47;7.00;90.00
58809;DHT22;44579;51.672;7.834;2023-01-30T14:45:52;6.40;92.00
58809;DHT22;44579;51.672;7.834;2023-01-30T14:48:23;6.30;91.70
58809;DHT22;44579;51.672;7.834;2023-01-30T14:53:48;6.10;91.70
58809;DHT22;44579;51.672;7.834;2023-01-30T14:56:16;6.10;91.70
58809;DHT22;44579;51.672;7.834;2023-01-30T14:58:50;6.00;91.70
58809;DHT22;44579;51.672;7.834;2023-01-30T15:01:17;6.00;91.70
58809;DHT22;44579;51.672;7.834;2023-01-30T15:03:45;6.00;91.60
58809;DHT22;44579;51.672;7.834;2023-01-30T15:06:13;6.00;91.50
58809;DHT22;44579;51.672;7.834;2023-01-30T15:08:40;6.10;91.40
58809;DHT22;44579;51.672;7.834;2023-01-30T15:11:14;6.10;91.30
58809;DHT22;44579;51.672;7.834;2023-01-30T15:13:43;6.10;91.20
58809;DHT22;44579;51.672;7.834;2023-01-30T15:29:31;6.20;90.80
58809;DHT22;44579;51.672;7.834;2023-01-30T15:32:13;6.30;90.80
58809;DHT22;44579;51.672;7.834;2023-01-30T15:34:47;6.30;90.70
58809;DHT22;44579;51.672;7.834;2023-01-30T15:40:10;6.40;90.60
58809;DHT22;44579;51.672;7.834;2023-01-30T15:42:37;6.40;90.60
58809;DHT22;44579;51.672;7.834;2023-01-30T15:47:56;6.50;90.50
58809;DHT22;44579;51.672;7.834;2023-01-30T15:50:27;6.60;90.40
58809;DHT22;44579;51.672;7.834;2023-01-30T15:52:54;6.60;90.40
58809;DHT22;44579;51.672;7.834;2023-01-30T15:55:23;6.60;90.30
58809;DHT22;44579;51.672;7.834;2023-01-30T15:57:52;6.70;90.30
58809;DHT22;44579;51.672;7.834;2023-01-30T16:00:30;6.70;90.20
58809;DHT22;44579;51.672;7.834;2023-01-30T16:02:58;6.80;90.30
58809;DHT22;44579;51.672;7.834;2023-01-30T16:05:26;6.70;90.20
58809;DHT22;44579;51.672;7.834;2023-01-30T16:07:54;6.70;90.20
58809;DHT22;44579;51.672;7.834;2023-01-30T16:10:25;6.70;90.20
58809;DHT22;44579;51.672;7.834;2023-01-30T16:12:53;6.80;90.20
58809;DHT22;44579;51.672;7.834;2023-01-30T16:15:32;6.80;90.20
58809;DHT22;44579;51.672;7.834;2023-01-30T16:20:50;6.80;90.20
58809;DHT22;44579;51.672;7.834;2023-01-30T16:23:41;6.80;90.20
58809;DHT22;44579;51.672;7.834;2023-01-30T16:26:16;6.90;90.20
58809;DHT22;44579;51.672;7.834;2023-01-30T16:28:43;6.80;90.10
58809;DHT22;44579;51.672;7.834;2023-01-30T16:31:10;6.90;90.10
58809;DHT22;44579;51.672;7.834;2023-01-30T16:33:37;6.80;90.10
58809;DHT22;44579;51.672;7.834;2023-01-30T16:36:05;6.80;90.10
58809;DHT22;44579;51.672;7.834;2023-01-30T16:38:37;6.80;90.10
58809;DHT22;44579;51.672;7.834;2023-01-30T16:41:04;6.80;90.10
58809;DHT22;44579;51.672;7.834;2023-01-30T16:43:31;6.70;90.10
58809;DHT22;44579;51.672;7.834;2023-01-30T16:48:45;6.60;90.10
58809;DHT22;44579;51.672;7.834;2023-01-30T16:51:30;6.60;90.20
58809;DHT22;44579;51.672;7.834;2023-01-30T16:53:58;6.60;90.20
58809;DHT22;44579;51.672;7.834;2023-01-30T16:56:26;6.60;90.20
58809;DHT22;44579;51.672;7.834;2023-01-30T16:58:54;6.60;90.20
58809;DHT22;44579;51.672;7.834;2023-01-30T17:01:21;6.60;90.20
58809;DHT22;44579;51.672;7.834;2023-01-30T17:03:55;6.60;90.20
58809;DHT22;44579;51.672;7.834;2023-01-30T17:06:29;6.60;90.20
58809;DHT22;44579;51.672;7.834;2023-01-30T17:08:58;6.60;90.20
58809;DHT22;44579;51.672;7.834;2023-01-30T17:11:35;6.60;90.20
58809;DHT22;44579;51.672;7.834;2023-01-30T17:16:35;6.60;90.20
58809;DHT22;44579;51.672;7.834;2023-01-30T17:19:02;6.60;90.20
58809;DHT22;44579;51.672;7.834;2023-01-30T17:21:30;6.60;90.20
58809;DHT22;44579;51.672;7.834;2023-01-30T17:24:01;6.70;90.10
58809;DHT22;44579;51.672;7.834;2023-01-30T17:26:29;6.70;90.10
58809;DHT22;44579;51.672;7.834;2023-01-30T17:31:50;6.60;90.10
58809;DHT22;44579;51.672;7.834;2023-01-30T17:34:17;6.60;90.10
58809;DHT22;44579;51.672;7.834;2023-01-30T17:36:45;6.60;90.10
58809;DHT22;44579;51.672;7.834;2023-01-30T17:39:13;6.60;90.00
58809;DHT22;44579;51.672;7.834;2023-01-30T17:41:41;6.60;90.00
58809;DHT22;44579;51.672;7.834;2023-01-30T17:44:08;6.70;90.00
58809;DHT22;44579;51.672;7.834;2023-01-30T17:46:35;6.60;90.00
58809;DHT22;44579;51.672;7.834;2023-01-30T17:49:02;6.60;89.90
58809;DHT22;44579;51.672;7.834;2023-01-30T17:51:29;6.60;89.80
58809;DHT22;44579;51.672;7.834;2023-01-30T17:53:56;6.50;89.80
58809;DHT22;44579;51.672;7.834;2023-01-30T17:56:32;6.60;89.80
58809;DHT22;44579;51.672;7.834;2023-01-30T17:59:04;6.60;89.60
58809;DHT22;44579;51.672;7.834;2023-01-30T18:01:31;6.60;89.60
58809;DHT22;44579;51.672;7.834;2023-01-30T18:03:58;6.60;89.40
58809;DHT22;44579;51.672;7.834;2023-01-30T18:06:25;6.60;89.40
58809;DHT22;44579;51.672;7.834;2023-01-30T18:08:52;6.60;89.30
58809;DHT22;44579;51.672;7.834;2023-01-30T18:11:19;6.50;89.20
58809;DHT22;44579;51.672;7.834;2023-01-30T18:13:48;6.50;89.20
58809;DHT22;44579;51.672;7.834;2023-01-30T18:16:19;6.50;89.30
58809;DHT22;44579;51.672;7.834;2023-01-30T18:18:47;6.40;89.40
58809;DHT22;44579;51.672;7.834;2023-01-30T18:21:14;6.40;89.40
58809;DHT22;44579;51.672;7.834;2023-01-30T18:23:41;6.40;89.40
58809;DHT22;44579;51.672;7.834;2023-01-30T18:26:09;6.30;90.00
58809;DHT22;44579;51.672;7.834;2023-01-30T18:28:36;6.30;89.00
58809;DHT22;44579;51.672;7.834;2023-01-30T18:31:03;6.40;89.00
58809;DHT22;44579;51.672;7.834;2023-01-30T18:33:31;6.40;89.10
58809;DHT22;44579;51.672;7.834;2023-01-30T18:35:58;6.40;89.10
58809;DHT22;44579;51.672;7.834;2023-01-30T18:38:25;6.50;89.20
58809;DHT22;44579;51.672;7.834;2023-01-30T18:40:53;6.50;89.00
58809;DHT22;44579;51.672;7.834;2023-01-30T18:43:20;6.50;88.70
58809;DHT22;44579;51.672;7.834;2023-01-30T18:45:48;6.50;88.70
58809;DHT22;44579;51.672;7.834;2023-01-30T18:48:14;6.60;88.50
58809;DHT22;44579;51.672;7.834;2023-01-30T18:50:41;6.60;88.60
58809;DHT22;44579;51.672;7.834;2023-01-30T18:53:08;6.60;88.60
58809;DHT22;44579;51.672;7.834;2023-01-30T18:55:34;6.60;88.70
58809;DHT22;44579;51.672;7.834;2023-01-30T18:58:01;6.60;88.60
58809;DHT22;44579;51.672;7.834;2023-01-30T19:00:28;6.60;88.40
58809;DHT22;44579;51.672;7.834;2023-01-30T19:02:54;6.50;88.20
58809;DHT22;44579;51.672;7.834;2023-01-30T19:05:21;6.60;88.30
58809;DHT22;44579;51.672;7.834;2023-01-30T19:07:48;6.60;88.40